Time;durP1;ratioP1;P1;durP2;ratioP2;P2;SDS_P1;SDS_P2;PMS_P1;PMS_P2;Temp;Humidity;BMP_temperature;BMP_pressure;BME280_temperature;BME280_humidity;BME280_pressure;Samples;Min_cycle;Max_cycle;Signal;HPM_P1;HPM_P2
2022/04/16 00:00:54;;;;;;;14.07;9.15;;;;;;;14.09;47.71;100090.77;1703797;83;21066;-53
2022/04/16 00:03:22;;;;;;;13.25;8.43;;;;;;;14.07;47.96;100089.23;1704793;82;21087;-53
2022/04/16 00:05:54;;;;;;;14.40;8.80;;;;;;;14.00;48.39;100090.34;1695114;83;21091;-52
2022/04/16 00:08:23;;;;;;;18.12;9.18;;;;;;;13.94;48.50;100090.47;1697788;82;21098;-53
2022/04/16 00:10:51;;;;;;;14.95;8.53;;;;;;;13.91;48.73;100097.38;1694697;81;21053;-53
2022/04/16 00:13:20;;;;;;;16.52;9.50;;;;;;;13.89;49.05;100105.96;1715892;83;21031;-53
2022/04/16 00:15:46;;;;;;;12.50;7.85;;;;;;;13.85;49.48;100112.55;1694856;83;21131;-53
2022/04/16 00:18:15;;;;;;;14.33;8.35;;;;;;;13.80;49.91;100128.04;1713569;82;21046;-53
2022/04/16 00:20:42;;;;;;;17.35;9.08;;;;;;;13.75;50.41;100129.80;1716981;82;21523;-53
2022/04/16 00:23:09;;;;;;;13.95;9.33;;;;;;;13.72;50.66;100125.31;1719577;81;21074;-53
2022/04/16 00:25:35;;;;;;;11.65;7.85;;;;;;;13.69;51.09;100122.95;1711628;81;21066;-53
2022/04/16 00:28:03;;;;;;;13.38;7.90;;;;;;;13.69;51.28;100120.31;1707815;83;21082;-53
2022/04/16 00:30:37;;;;;;;12.03;7.92;;;;;;;13.67;51.26;100117.81;1747142;81;21087;-53
2022/04/16 00:33:02;;;;;;;13.08;8.30;;;;;;;13.69;51.45;100125.59;1745426;80;21328;-54
2022/04/16 00:35:29;;;;;;;12.65;8.73;;;;;;;13.66;51.84;100112.17;1744275;81;21005;-53
2022/04/16 00:37:56;;;;;;;12.98;8.78;;;;;;;13.64;52.17;100108.86;1747353;81;21121;-52
2022/04/16 00:40:23;;;;;;;10.88;8.20;;;;;;;13.63;52.16;100097.92;1743589;80;21040;-53
2022/04/16 00:42:50;;;;;;;12.53;7.95;;;;;;;13.65;52.35;100110.53;1745520;81;21038;-53
2022/04/16 00:45:17;;;;;;;11.25;7.75;;;;;;;13.64;52.50;100113.32;1744600;80;21222;-53
2022/04/16 00:47:45;;;;;;;10.48;7.60;;;;;;;13.63;52.78;100134.12;1691599;83;21058;-54
2022/04/16 00:50:12;;;;;;;10.15;7.05;;;;;;;13.60;52.87;100127.33;1701349;82;21085;-53
2022/04/16 00:52:40;;;;;;;10.03;7.33;;;;;;;13.59;52.94;100135.41;1706057;83;21063;-53
2022/04/16 00:57:49;;;;;;;11.00;7.10;;;;;;;13.60;53.14;100126.48;1804558;79;22675;-52
2022/04/16 01:00:16;;;;;;;11.45;7.37;;;;;;;13.54;53.43;100128.73;1779609;80;21012;-51
2022/04/16 01:02:43;;;;;;;10.85;7.97;;;;;;;13.52;53.52;100137.31;1771151;79;21603;-51
2022/04/16 01:05:12;;;;;;;11.43;7.12;;;;;;;13.50;53.71;100128.70;1778763;78;20923;-52
2022/04/16 01:07:57;;;;;;;11.78;7.70;;;;;;;13.49;53.84;100124.88;1778430;78;20986;-53
2022/04/16 01:10:27;;;;;;;10.30;6.33;;;;;;;13.46;53.91;100118.56;1761741;78;21508;-52
2022/04/16 01:12:55;;;;;;;13.45;7.12;;;;;;;13.42;54.05;100122.00;1752457;80;20990;-51
2022/04/16 01:15:22;;;;;;;11.83;6.97;;;;;;;13.38;54.10;100121.47;1759783;78;21127;-51
2022/04/16 01:17:49;;;;;;;9.70;6.92;;;;;;;13.34;54.31;100122.72;1757920;79;21050;-51
2022/04/16 01:20:17;;;;;;;13.50;7.15;;;;;;;13.30;54.23;100109.95;1777095;78;21003;-51
2022/04/16 01:22:50;;;;;;;11.53;7.37;;;;;;;13.30;54.19;100102.02;1790551;78;21011;-52
2022/04/16 01:25:18;;;;;;;11.33;7.30;;;;;;;13.28;54.52;100110.55;1760396;79;21057;-51
2022/04/16 01:27:48;;;;;;;15.63;7.15;;;;;;;13.24;54.49;100102.59;1755732;80;21210;-51
2022/04/16 01:30:18;;;;;;;10.68;8.03;;;;;;;13.21;54.51;100097.10;1765039;80;20975;-51
2022/04/16 01:32:46;;;;;;;14.73;7.45;;;;;;;13.18;54.59;100083.72;1710033;83;21078;-52
2022/04/16 01:35:15;;;;;;;13.90;6.75;;;;;;;13.17;54.64;100072.80;1708980;83;21576;-52
2022/04/16 01:37:43;;;;;;;11.55;7.55;;;;;;;13.18;54.62;100082.39;1714809;81;21022;-52
2022/04/16 01:40:12;;;;;;;11.60;6.97;;;;;;;13.17;54.81;100096.56;1732588;82;21447;-52
2022/04/16 01:42:41;;;;;;;10.65;6.35;;;;;;;13.15;55.09;100118.84;1717219;82;21562;-52
2022/04/16 01:45:09;;;;;;;10.93;6.60;;;;;;;13.06;55.29;100126.30;1728955;81;21066;-52
2022/04/16 01:47:38;;;;;;;10.45;6.80;;;;;;;13.01;55.57;100132.02;1721202;82;21117;-52
2022/04/16 01:50:10;;;;;;;11.57;7.05;;;;;;;12.97;55.68;100120.91;1731988;81;21055;-52
2022/04/16 01:52:37;;;;;;;8.63;6.37;;;;;;;12.96;55.79;100123.70;1726487;82;21220;-51
2022/04/16 01:55:07;;;;;;;10.85;7.10;;;;;;;12.94;56.06;100137.54;1729053;81;21038;-52
2022/04/16 01:57:34;;;;;;;12.88;7.70;;;;;;;12.92;56.14;100124.97;1711104;82;20983;-52
2022/04/16 02:00:01;;;;;;;13.75;7.20;;;;;;;12.90;56.31;100130.39;1694501;82;21499;-52
2022/04/16 02:02:29;;;;;;;11.63;7.05;;;;;;;12.89;56.38;100141.09;1709252;82;21102;-51
2022/04/16 02:04:56;;;;;;;10.68;6.62;;;;;;;12.85;56.52;100139.73;1693038;82;21094;-52
2022/04/16 02:07:23;;;;;;;13.35;7.28;;;;;;;12.81;56.77;100140.52;1698744;84;21162;-52
2022/04/16 02:09:49;;;;;;;11.40;6.80;;;;;;;12.78;56.78;100148.72;1704285;82;21057;-52
2022/04/16 02:12:16;;;;;;;13.08;7.50;;;;;;;12.75;56.92;100158.23;1699163;82;21043;-52
2022/04/16 02:14:42;;;;;;;11.00;6.62;;;;;;;12.73;56.99;100153.09;1702268;82;21047;-52
2022/04/16 02:17:09;;;;;;;11.68;6.58;;;;;;;12.70;57.12;100156.52;1698036;84;21150;-52
2022/04/16 02:19:38;;;;;;;9.90;6.15;;;;;;;12.69;57.26;100160.12;1694589;84;21090;-52
2022/04/16 02:22:06;;;;;;;10.82;7.30;;;;;;;12.67;57.37;100159.43;1704015;82;22309;-52
2022/04/16 02:24:33;;;;;;;13.03;7.08;;;;;;;12.64;57.39;100165.34;1702360;82;21531;-52
2022/04/16 02:26:59;;;;;;;12.33;6.85;;;;;;;12.64;57.61;100148.66;1703758;82;21130;-52
2022/04/16 02:29:27;;;;;;;11.18;8.00;;;;;;;12.67;57.68;100152.83;1696920;82;21096;-52
2022/04/16 02:31:54;;;;;;;13.03;6.97;;;;;;;12.71;57.56;100144.49;1701667;82;21142;-52
2022/04/16 02:34:21;;;;;;;10.28;6.67;;;;;;;12.75;57.48;100143.22;1695241;82;21533;-52
2022/04/16 02:36:48;;;;;;;12.82;8.03;;;;;;;12.75;57.40;100149.82;1703510;82;21074;-52
2022/04/16 02:39:15;;;;;;;12.88;7.87;;;;;;;12.75;57.43;100132.66;1702811;82;21112;-53
2022/04/16 02:41:42;;;;;;;11.90;7.58;;;;;;;12.75;57.60;100143.22;1695961;82;21106;-52
2022/04/16 02:47:05;;;;;;;13.43;7.95;;;;;;;12.73;57.73;100139.08;1705581;82;21060;-52
2022/04/16 02:49:23;;;;;;;12.98;7.58;;;;;;;12.71;57.73;100137.04;1697448;82;21106;-53
2022/04/16 02:51:51;;;;;;;10.75;6.42;;;;;;;12.70;57.81;100140.17;1696157;82;21046;-52
2022/04/16 02:54:19;;;;;;;12.65;7.90;;;;;;;12.67;57.85;100135.67;1701592;82;21039;-53
2022/04/16 02:56:46;;;;;;;11.73;7.25;;;;;;;12.63;57.97;100135.95;1696086;82;21121;-52
2022/04/16 02:59:14;;;;;;;14.33;7.67;;;;;;;12.61;58.21;100144.52;1713445;82;21493;-52
2022/04/16 03:01:42;;;;;;;12.55;8.00;;;;;;;12.53;58.39;100142.23;1775959;79;21349;-52
2022/04/16 03:04:08;;;;;;;13.13;7.10;;;;;;;12.50;58.63;100156.53;1777909;79;21508;-52
2022/04/16 03:06:35;;;;;;;12.28;7.75;;;;;;;12.49;58.98;100169.41;1767966;79;22107;-52
2022/04/16 03:09:01;;;;;;;13.75;6.95;;;;;;;12.51;58.98;100149.44;1773856;79;22322;-52
2022/04/16 03:11:29;;;;;;;10.03;6.90;;;;;;;12.54;59.20;100157.08;1774130;80;21090;-52
2022/04/16 03:17:31;;;;;;;13.80;8.25;;;;;;;12.50;59.20;100152.58;1780884;79;21038;-52
2022/04/16 03:19:12;;;;;;;12.65;7.42;;;;;;;12.45;59.48;100149.03;1766655;80;21149;-53
2022/04/16 03:21:39;;;;;;;13.18;8.15;;;;;;;12.43;59.61;100138.28;1769322;79;21018;-53
2022/04/16 03:24:06;;;;;;;13.43;7.87;;;;;;;12.42;59.91;100167.81;1708569;82;21118;-53
2022/04/16 03:26:34;;;;;;;13.95;9.08;;;;;;;12.35;59.93;100168.49;1778615;79;21062;-53
2022/04/16 03:29:01;;;;;;;11.90;8.25;;;;;;;12.30;60.31;100154.89;1778948;79;21046;-52
2022/04/16 03:31:28;;;;;;;10.70;8.13;;;;;;;12.30;60.26;100174.19;1777127;79;21136;-52
2022/04/16 03:33:54;;;;;;;13.88;7.92;;;;;;;12.27;60.37;100173.13;1760752;80;21074;-53
2022/04/16 03:36:20;;;;;;;12.70;8.73;;;;;;;12.24;60.40;100173.44;1768027;79;22030;-52
2022/04/16 03:38:47;;;;;;;16.50;9.18;;;;;;;12.26;60.38;100165.72;1766209;79;21028;-52
2022/04/16 03:41:14;;;;;;;13.85;8.43;;;;;;;12.40;60.24;100169.73;1771044;79;22279;-51
2022/04/16 03:43:40;;;;;;;11.88;7.67;;;;;;;12.48;60.14;100166.41;1762367;79;22061;-51
2022/04/16 03:46:08;;;;;;;14.87;9.18;;;;;;;12.51;60.03;100174.05;1757715;79;21883;-52
2022/04/16 03:48:35;;;;;;;13.13;9.30;;;;;;;12.52;60.01;100166.95;1769439;79;21491;-51
2022/04/16 03:51:02;;;;;;;11.03;8.35;;;;;;;12.51;60.07;100172.73;1763420;79;21037;-51
2022/04/16 03:53:29;;;;;;;13.03;8.60;;;;;;;12.52;60.01;100173.05;1767179;79;21058;-51
2022/04/16 04:01:27;;;;;;;16.00;9.00;;;;;;;12.52;60.32;100177.51;1760142;79;21021;-51
2022/04/16 04:03:54;;;;;;;14.30;9.00;;;;;;;12.52;60.37;100180.15;1767751;80;21055;-52
2022/04/16 04:06:20;;;;;;;13.62;9.33;;;;;;;12.60;60.42;100181.60;1756965;79;21155;-51
2022/04/16 04:08:49;;;;;;;14.38;9.00;;;;;;;12.64;60.33;100179.02;1759505;80;21461;-53
2022/04/16 04:11:15;;;;;;;11.97;9.13;;;;;;;12.67;60.26;100176.09;1764062;80;21704;-53
2022/04/16 04:13:42;;;;;;;13.95;9.15;;;;;;;12.70;60.23;100181.59;1768936;79;21095;-52
2022/04/16 04:16:09;;;;;;;13.65;9.53;;;;;;;12.71;60.27;100187.20;1754802;79;21056;-52
2022/04/16 04:18:37;;;;;;;15.35;9.55;;;;;;;12.70;60.26;100189.02;1769164;80;21028;-52
2022/04/16 04:21:03;;;;;;;14.35;9.45;;;;;;;12.67;60.33;100181.38;1755989;79;22306;-52
2022/04/16 04:23:30;;;;;;;15.63;10.40;;;;;;;12.64;60.49;100180.33;1751377;80;20993;-52
2022/04/16 04:25:56;;;;;;;14.80;10.13;;;;;;;12.60;60.47;100183.74;1757757;79;21038;-53
2022/04/16 04:28:23;;;;;;;15.32;10.48;;;;;;;12.60;60.42;100185.06;1742090;82;21008;-52
2022/04/16 04:30:50;;;;;;;14.85;9.63;;;;;;;12.60;60.40;100190.34;1769752;79;21055;-53
2022/04/16 04:33:16;;;;;;;15.32;10.05;;;;;;;12.58;60.44;100184.38;1763850;79;21049;-52
2022/04/16 04:35:43;;;;;;;13.93;9.18;;;;;;;12.59;60.42;100187.84;1764223;79;21096;-51
2022/04/16 04:38:10;;;;;;;16.52;9.93;;;;;;;12.59;60.55;100182.56;1767232;79;21094;-51
2022/04/16 04:40:39;;;;;;;18.40;9.38;;;;;;;12.57;60.35;100187.16;1757127;80;21056;-54
2022/04/16 04:43:06;;;;;;;15.48;9.98;;;;;;;12.54;60.37;100191.39;1758345;80;21038;-54
2022/04/16 04:45:34;;;;;;;14.38;9.88;;;;;;;12.53;60.48;100183.97;1764273;79;21564;-51
2022/04/16 04:48:01;;;;;;;14.00;9.83;;;;;;;12.56;60.41;100179.73;1767597;79;21076;-51
2022/04/16 04:50:28;;;;;;;15.30;10.18;;;;;;;12.59;60.31;100187.84;1763930;79;21105;-51
2022/04/16 04:52:54;;;;;;;14.38;10.32;;;;;;;12.59;60.35;100185.20;1761981;80;21075;-52
2022/04/16 04:55:21;;;;;;;16.45;11.12;;;;;;;12.57;60.48;100184.52;1755578;80;21131;-53
2022/04/16 04:57:54;;;;;;;14.50;10.35;;;;;;;12.54;60.44;100181.69;1760555;79;21158;-52
2022/04/16 05:00:16;;;;;;;14.23;10.18;;;;;;;12.50;60.48;100192.16;1760410;80;21043;-52
2022/04/16 05:02:47;;;;;;;14.07;9.90;;;;;;;12.44;60.63;100190.10;1764086;80;21074;-52
2022/04/16 05:05:15;;;;;;;15.68;8.03;;;;;;;12.45;60.74;100187.30;1757926;79;21036;-52
2022/04/16 05:07:42;;;;;;;14.78;9.75;;;;;;;12.53;60.62;100184.47;1761527;79;21001;-52
2022/04/16 05:10:09;;;;;;;14.63;9.90;;;;;;;12.58;60.46;100182.23;1761447;80;21622;-52
2022/04/16 05:12:37;;;;;;;15.75;9.98;;;;;;;12.62;60.31;100180.50;1759027;80;21071;-52
2022/04/16 05:15:07;;;;;;;22.37;11.08;;;;;;;12.67;60.29;100177.41;1752016;79;21145;-52
2022/04/16 05:17:40;;;;;;;13.62;9.03;;;;;;;12.73;59.97;100179.50;1731597;82;21043;-51
2022/04/16 05:20:08;;;;;;;15.10;11.50;;;;;;;12.71;59.72;100181.45;1778996;79;21046;-51
2022/04/16 05:22:35;;;;;;;16.60;9.75;;;;;;;12.66;59.82;100175.77;1755684;79;21133;-51
2022/04/16 05:25:05;;;;;;;15.93;10.63;;;;;;;12.62;59.73;100173.05;1762001;79;21530;-51
2022/04/16 05:27:34;;;;;;;16.37;10.70;;;;;;;12.55;59.87;100174.59;1754294;80;21044;-52
2022/04/16 05:30:07;;;;;;;13.93;10.60;;;;;;;12.56;59.87;100176.27;1761349;80;20996;-51
2022/04/16 05:32:37;;;;;;;16.30;10.20;;;;;;;12.56;59.96;100173.63;1760977;80;21042;-51
2022/04/16 05:35:05;;;;;;;14.65;10.58;;;;;;;12.56;60.01;100173.63;1762143;80;21516;-51
2022/04/16 05:37:31;;;;;;;15.55;9.80;;;;;;;12.58;60.01;100182.23;1754449;79;21101;-52
2022/04/16 05:39:57;;;;;;;15.95;10.68;;;;;;;12.61;59.88;100188.56;1766286;80;21024;-52
2022/04/16 05:42:24;;;;;;;13.45;8.93;;;;;;;12.64;59.82;100187.78;1755185;79;21145;-52
2022/04/16 05:44:51;;;;;;;14.20;10.05;;;;;;;12.66;59.60;100186.80;1761352;80;21006;-52
2022/04/16 05:47:17;;;;;;;13.28;9.83;;;;;;;12.61;59.57;100190.70;1767337;80;21670;-52
2022/04/16 05:49:45;;;;;;;16.00;9.20;;;;;;;12.59;59.67;100199.72;1773066;80;21546;-52
2022/04/16 05:52:12;;;;;;;11.12;8.38;;;;;;;12.65;59.64;100203.13;1764212;80;21650;-52
2022/04/16 05:54:38;;;;;;;14.53;9.75;;;;;;;12.70;59.40;100192.98;1760388;79;21086;-52
2022/04/16 05:57:06;;;;;;;17.10;11.05;;;;;;;12.76;59.54;100193.73;1749028;80;21058;-52
2022/04/16 05:59:33;;;;;;;15.18;9.95;;;;;;;12.83;58.90;100194.83;1767373;80;21255;-52
2022/04/16 06:02:00;;;;;;;15.18;10.32;;;;;;;12.94;58.63;100198.28;1757708;80;21057;-51
2022/04/16 06:04:27;;;;;;;15.48;9.40;;;;;;;13.00;58.58;100195.08;1736829;80;21096;-53
2022/04/16 06:06:55;;;;;;;13.45;8.95;;;;;;;13.07;58.44;100188.23;1765104;79;21062;-53
2022/04/16 06:09:21;;;;;;;16.23;10.63;;;;;;;13.11;58.23;100188.31;1766880;80;21061;-52
2022/04/16 06:11:49;;;;;;;14.35;9.63;;;;;;;13.12;57.97;100191.78;1762548;79;21155;-53
2022/04/16 06:14:15;;;;;;;14.13;10.05;;;;;;;13.13;58.01;100188.99;1770658;79;21023;-53
2022/04/16 06:16:43;;;;;;;16.52;10.45;;;;;;;13.16;57.91;100186.06;1757509;80;21012;-53
2022/04/16 06:19:09;;;;;;;15.60;10.38;;;;;;;13.23;57.79;100182.36;1743694;80;21038;-52
2022/04/16 06:21:35;;;;;;;13.85;9.95;;;;;;;13.30;57.83;100183.94;1743182;80;21071;-53
2022/04/16 06:24:02;;;;;;;14.93;10.68;;;;;;;13.37;57.65;100173.14;1755806;80;21255;-53
2022/04/16 06:26:29;;;;;;;17.02;11.03;;;;;;;13.46;56.83;100176.72;1764468;80;21500;-52
2022/04/16 06:28:56;;;;;;;14.93;9.48;;;;;;;13.53;56.88;100181.28;1762970;79;21084;-53
2022/04/16 06:31:23;;;;;;;14.83;10.70;;;;;;;13.58;56.60;100177.35;1765057;80;21039;-53
2022/04/16 06:33:50;;;;;;;14.80;11.53;;;;;;;13.61;56.37;100171.28;1758790;80;21063;-53
2022/04/16 06:36:18;;;;;;;13.90;9.78;;;;;;;13.64;56.35;100171.48;1767991;80;21143;-53
2022/04/16 06:38:44;;;;;;;17.27;10.82;;;;;;;13.68;56.30;100172.84;1755944;79;21997;-51
2022/04/16 06:41:11;;;;;;;16.82;10.23;;;;;;;13.74;56.34;100170.94;1767287;80;21601;-52
2022/04/16 06:43:37;;;;;;;14.05;9.73;;;;;;;13.80;56.13;100173.46;1766442;79;21059;-52
2022/04/16 06:46:05;;;;;;;16.48;10.85;;;;;;;13.87;56.11;100175.38;1765152;79;21062;-52
2022/04/16 06:48:33;;;;;;;15.75;10.35;;;;;;;13.92;55.45;100178.41;1761192;80;21145;-52
2022/04/16 06:50:59;;;;;;;15.83;10.85;;;;;;;13.97;55.61;100171.34;1763096;80;21019;-52
2022/04/16 06:53:27;;;;;;;14.15;9.63;;;;;;;14.06;55.20;100174.90;1711419;82;21049;-52
2022/04/16 06:55:53;;;;;;;14.23;10.40;;;;;;;14.16;55.11;100179.63;1749545;80;21026;-52
2022/04/16 06:58:22;;;;;;;16.05;10.78;;;;;;;14.21;55.09;100176.53;1761830;79;21101;-52
2022/04/16 07:00:52;;;;;;;19.27;10.75;;;;;;;14.29;54.99;100180.58;1767179;80;21215;-52
2022/04/16 07:03:20;;;;;;;17.55;11.03;;;;;;;14.34;54.34;100186.25;1759556;79;21049;-52
2022/04/16 07:05:47;;;;;;;17.35;11.57;;;;;;;14.36;54.62;100182.95;1766259;79;21066;-52
2022/04/16 07:08:15;;;;;;;13.72;10.03;;;;;;;14.46;54.17;100188.16;1764175;80;21117;-52
2022/04/16 07:10:42;;;;;;;20.80;11.35;;;;;;;14.49;54.21;100183.86;1766302;80;21030;-53
2022/04/16 07:13:10;;;;;;;16.67;10.48;;;;;;;14.52;53.78;100180.91;1765923;80;21003;-51
2022/04/16 07:15:37;;;;;;;16.25;10.90;;;;;;;14.49;53.59;100182.54;1768428;80;21121;-52
2022/04/16 07:18:05;;;;;;;14.80;11.10;;;;;;;14.45;53.85;100180.69;1762590;79;21101;-52
2022/04/16 07:20:32;;;;;;;17.85;11.97;;;;;;;14.44;53.93;100182.17;1762996;79;21103;-52
2022/04/16 07:22:59;;;;;;;15.85;10.88;;;;;;;14.44;53.88;100182.17;1766589;79;20999;-52
2022/04/16 07:25:26;;;;;;;15.30;10.82;;;;;;;14.49;54.16;100193.13;1768649;80;21174;-52
2022/04/16 07:27:54;;;;;;;18.75;12.03;;;;;;;14.53;53.78;100189.20;1765835;79;21055;-52
2022/04/16 07:30:21;;;;;;;14.68;10.88;;;;;;;14.55;53.52;100189.87;1761347;79;21071;-52
2022/04/16 07:32:51;;;;;;;15.40;11.20;;;;;;;14.57;53.98;100188.41;1767559;80;22091;-51
2022/04/16 07:35:18;;;;;;;19.15;12.15;;;;;;;14.57;53.67;100189.22;1762818;79;21068;-52
2022/04/16 07:37:51;;;;;;;16.60;11.30;;;;;;;14.54;53.92;100192.20;1766360;79;21153;-52
2022/04/16 07:40:14;;;;;;;20.25;13.15;;;;;;;14.48;54.06;100188.33;1767022;80;21086;-52
2022/04/16 07:42:40;;;;;;;18.40;13.10;;;;;;;14.44;54.26;100182.17;1763784;79;21530;-52
2022/04/16 07:45:09;;;;;;;15.93;12.68;;;;;;;14.36;54.42;100197.50;1769312;80;21048;-52
2022/04/16 07:47:35;;;;;;;18.32;11.15;;;;;;;14.28;54.65;100192.95;1766830;79;21824;-52
2022/04/16 07:50:03;;;;;;;15.70;11.00;;;;;;;14.23;54.90;100197.05;1765594;79;22098;-52
2022/04/16 07:52:30;;;;;;;18.62;13.13;;;;;;;14.17;55.11;100198.50;1767422;79;21089;-52
2022/04/16 07:54:57;;;;;;;18.95;11.95;;;;;;;14.13;55.28;100202.41;1768759;79;21078;-52
2022/04/16 07:57:25;;;;;;;18.15;11.85;;;;;;;14.09;55.46;100205.85;1765841;80;21063;-52
2022/04/16 07:59:54;;;;;;;16.15;11.65;;;;;;;14.06;55.56;100209.30;1761114;80;21041;-53
2022/04/16 08:02:21;;;;;;;19.85;12.03;;;;;;;14.05;55.58;100215.55;1760596;79;21753;-52
2022/04/16 08:04:47;;;;;;;17.98;12.55;;;;;;;14.05;55.59;100209.77;1757051;80;21036;-52
2022/04/16 08:07:14;;;;;;;17.27;12.00;;;;;;;14.10;55.48;100211.97;1759717;79;21043;-52
2022/04/16 08:09:41;;;;;;;19.45;12.23;;;;;;;14.14;55.64;100217.31;1754517;80;21534;-52
2022/04/16 08:12:08;;;;;;;16.93;12.15;;;;;;;14.22;55.43;100213.43;1768563;79;22236;-51
2022/04/16 08:14:35;;;;;;;17.02;11.20;;;;;;;14.30;55.21;100212.16;1766248;79;21787;-51
2022/04/16 08:17:04;;;;;;;16.95;12.30;;;;;;;14.43;54.97;100216.26;1752871;80;21053;-52
2022/04/16 08:19:30;;;;;;;17.82;12.73;;;;;;;14.50;54.51;100215.98;1756584;79;21465;-52
2022/04/16 08:21:56;;;;;;;16.12;11.70;;;;;;;14.53;53.95;100213.03;1751154;80;21786;-52
2022/04/16 08:24:39;;;;;;;18.92;12.85;;;;;;;14.56;53.31;100218.03;1763854;79;21584;-51
2022/04/16 08:26:53;;;;;;;16.67;12.55;;;;;;;14.57;53.71;100218.85;1754254;80;21039;-51
2022/04/16 08:29:19;;;;;;;18.37;12.35;;;;;;;14.58;53.24;100220.02;1763648;79;21050;-51
2022/04/16 08:31:46;;;;;;;17.52;12.63;;;;;;;14.56;53.21;100214.53;1753858;79;21084;-51
2022/04/16 08:34:13;;;;;;;14.25;11.30;;;;;;;14.58;53.46;100214.73;1753822;80;21041;-51
2022/04/16 08:36:39;;;;;;;17.50;12.03;;;;;;;14.65;53.61;100217.63;1756316;80;21058;-52
2022/04/16 08:39:06;;;;;;;16.97;12.45;;;;;;;14.67;53.74;100217.80;1762170;80;21207;-52
2022/04/16 08:41:34;;;;;;;18.62;12.25;;;;;;;14.66;53.65;100219.31;1757228;80;21061;-52
2022/04/16 08:44:01;;;;;;;16.23;12.53;;;;;;;14.62;53.67;100217.43;1758157;80;21559;-52
2022/04/16 08:46:29;;;;;;;16.50;12.00;;;;;;;14.58;53.78;100208.11;1763652;79;21050;-51
2022/04/16 08:48:58;;;;;;;13.93;11.25;;;;;;;14.55;54.02;100207.09;1757378;80;21068;-52
2022/04/16 08:51:26;;;;;;;20.08;11.12;;;;;;;14.54;53.74;100206.77;1764772;80;21126;-52
2022/04/16 08:53:53;;;;;;;17.90;12.00;;;;;;;14.50;53.49;100204.06;1765489;80;21079;-52
2022/04/16 08:56:19;;;;;;;15.90;11.38;;;;;;;14.52;53.62;100207.39;1753034;80;21055;-52
2022/04/16 08:58:47;;;;;;;17.50;10.98;;;;;;;14.55;52.97;100214.20;1755874;79;21070;-53
2022/04/16 09:01:16;;;;;;;16.02;10.93;;;;;;;14.56;52.75;100214.06;1762707;79;21561;-51
2022/04/16 09:03:43;;;;;;;14.28;10.38;;;;;;;14.56;52.66;100211.41;1756538;80;21175;-50
2022/04/16 09:06:09;;;;;;;14.90;9.80;;;;;;;14.56;52.84;100215.85;1765196;80;21003;-51
2022/04/16 09:08:36;;;;;;;13.53;10.20;;;;;;;14.54;52.72;100221.80;1758818;79;21035;-51
2022/04/16 09:11:11;;;;;;;11.03;8.30;;;;;;;14.50;52.89;100216.80;1757509;79;21086;-51
2022/04/16 09:13:54;;;;;;;11.70;8.20;;;;;;;14.47;52.89;100211.84;1758880;80;21545;-51
2022/04/16 09:16:21;;;;;;;12.37;8.30;;;;;;;14.43;52.74;100218.41;1756129;80;21205;-52
2022/04/16 09:18:50;;;;;;;14.90;9.25;;;;;;;14.41;52.68;100216.91;1761459;79;21039;-52
2022/04/16 09:21:20;;;;;;;11.97;8.30;;;;;;;14.41;52.81;100214.27;1758825;80;20999;-52
2022/04/16 09:23:53;;;;;;;13.95;8.85;;;;;;;14.48;53.04;100216.63;1763846;80;21055;-52
2022/04/16 09:26:38;;;;;;;13.83;8.70;;;;;;;14.53;52.74;100211.71;1761250;80;21057;-52
2022/04/16 09:29:15;;;;;;;12.85;8.75;;;;;;;14.57;52.42;100213.05;1762351;79;21264;-51
2022/04/16 09:31:45;;;;;;;12.37;8.45;;;;;;;14.61;52.20;100218.94;1756427;80;21520;-52
2022/04/16 09:34:19;;;;;;;11.20;8.20;;;;;;;14.62;52.18;100220.58;1756135;80;21135;-52
2022/04/16 09:36:46;;;;;;;14.87;7.85;;;;;;;14.61;52.14;100230.35;1759013;79;21005;-50
2022/04/16 09:39:13;;;;;;;11.30;8.48;;;;;;;14.59;52.29;100228.83;1763148;79;21094;-52
2022/04/16 09:41:41;;;;;;;11.03;7.85;;;;;;;14.52;52.20;100223.27;1754167;80;21141;-54
2022/04/16 09:44:28;;;;;;;15.72;8.93;;;;;;;14.46;52.02;100229.20;1757103;80;21035;-51
2022/04/16 09:46:57;;;;;;;12.03;7.95;;;;;;;14.40;52.14;100227.14;1744302;80;21904;-53
2022/04/16 09:49:25;;;;;;;12.10;8.05;;;;;;;14.36;52.15;100233.24;1752148;80;21011;-53
2022/04/16 09:51:52;;;;;;;12.50;8.40;;;;;;;14.35;52.27;100232.06;1765493;80;21597;-51
2022/04/16 09:54:21;;;;;;;12.53;8.63;;;;;;;14.36;52.25;100231.91;1760963;79;21149;-51
2022/04/16 09:56:48;;;;;;;9.43;5.28;;;;;;;14.39;52.40;100255.91;1771514;79;21525;-51
2022/04/16 09:59:16;;;;;;;7.15;3.95;;;;;;;14.26;54.17;100261.09;1766048;80;21502;-53
2022/04/16 10:01:47;;;;;;;8.10;3.75;;;;;;;13.89;55.57;100264.66;1772264;80;21052;-51
2022/04/16 10:04:19;;;;;;;9.33;3.87;;;;;;;13.40;57.11;100267.15;1750895;79;21076;-52
2022/04/16 10:06:47;;;;;;;8.25;4.42;;;;;;;12.95;58.55;100264.66;1764663;80;21149;-52
2022/04/16 10:09:17;;;;;;;7.85;3.45;;;;;;;12.71;59.32;100286.20;1755115;79;21047;-52
2022/04/16 10:15:16;;;;;;;8.13;3.70;;;;;;;11.95;61.21;100282.33;1765820;80;21048;-52
2022/04/16 10:17:50;;;;;;;7.33;3.58;;;;;;;11.61;62.24;100279.96;1719413;82;21169;-52
2022/04/16 10:20:21;;;;;;;6.70;3.33;;;;;;;11.37;63.01;100301.84;1752125;80;21096;-52
2022/04/16 10:23:03;;;;;;;6.08;3.37;;;;;;;11.26;63.26;100297.00;1756755;80;21082;-52
2022/04/16 10:25:34;;;;;;;6.72;3.47;;;;;;;11.24;63.27;100311.25;1754285;80;21103;-52
2022/04/16 10:28:14;;;;;;;10.03;3.12;;;;;;;11.00;63.81;100299.17;1763897;79;21021;-53
2022/04/16 10:30:42;;;;;;;6.30;3.10;;;;;;;10.91;64.01;100319.20;1681014;82;21024;-52
2022/04/16 10:33:20;;;;;;;7.00;3.90;;;;;;;10.73;64.37;100328.61;1698479;82;21185;-50
2022/04/16 10:35:56;;;;;;;5.95;3.15;;;;;;;10.55;64.50;100339.65;1759458;80;21547;-51
2022/04/16 10:38:36;;;;;;;7.30;3.22;;;;;;;10.48;64.64;100349.00;1762090;80;21080;-52
2022/04/16 10:41:21;;;;;;;7.30;3.70;;;;;;;10.32;64.95;100340.66;1763448;79;21352;-52
2022/04/16 10:43:59;;;;;;;9.45;3.50;;;;;;;10.34;64.92;100347.48;1761091;79;21087;-52
2022/04/16 10:46:46;;;;;;;8.03;3.20;;;;;;;10.30;64.54;100343.38;1758031;80;21799;-52
2022/04/16 10:49:14;;;;;;;;;;;;;;;10.29;64.41;100350.92;1757278;79;21660;-52
2022/04/16 10:51:41;;;;;;;6.87;2.37;;;;;;;10.19;64.55;100373.16;1760009;80;20214;-52
2022/04/16 10:54:12;;;;;;;6.08;2.20;;;;;;;10.13;64.48;100376.75;1757399;80;21023;-52
2022/04/16 10:56:40;;;;;;;4.10;1.62;;;;;;;10.12;64.21;100376.37;1772598;79;21093;-52
2022/04/16 10:59:11;;;;;;;5.12;1.72;;;;;;;10.04;63.99;100391.45;1746581;80;21114;-52
2022/04/16 11:01:38;;;;;;;3.98;0.98;;;;;;;9.93;63.70;100388.33;1751000;80;21116;-52
2022/04/16 11:04:15;;;;;;;4.33;1.47;;;;;;;9.96;62.31;100385.47;1763046;80;20967;-52
2022/04/16 11:06:45;;;;;;;4.10;1.00;;;;;;;9.97;61.66;100379.27;1764681;80;21086;-52
2022/04/16 11:09:13;;;;;;;3.60;1.17;;;;;;;10.01;61.80;100397.78;1770289;79;21589;-52
2022/04/16 11:11:43;;;;;;;1.77;0.50;;;;;;;10.00;62.04;100393.95;1779471;80;21219;-52
2022/04/16 11:14:10;;;;;;;2.10;0.50;;;;;;;9.99;61.91;100389.66;1770963;80;21155;-53
2022/04/16 11:16:46;;;;;;;2.27;0.62;;;;;;;10.01;61.41;100398.27;1777124;80;21098;-52
2022/04/16 11:19:13;;;;;;;1.98;0.50;;;;;;;9.97;61.56;100382.35;1779139;79;21265;-53
2022/04/16 11:21:40;;;;;;;1.70;0.53;;;;;;;9.88;61.93;100394.91;1770160;79;21054;-52
2022/04/16 11:24:08;;;;;;;3.62;0.60;;;;;;;9.84;62.23;100391.19;1766776;80;21038;-53
2022/04/16 11:34:53;;;;;;;;;;;;;;;9.57;63.34;100407.77;1755450;80;21085;-52
2022/04/16 11:37:20;;;;;;;3.12;0.72;;;;;;;9.48;62.75;100357.59;1773347;79;21147;-52
2022/04/16 11:40:03;;;;;;;3.45;0.90;;;;;;;9.41;63.01;100412.00;1775426;80;21025;-52
2022/04/16 11:43:51;;;;;;;2.83;0.70;;;;;;;9.34;63.50;100415.56;1793207;79;22615;-53
2022/04/16 11:46:18;;;;;;;3.25;0.90;;;;;;;9.33;63.29;100423.55;1763141;79;21718;-55
2022/04/16 11:48:47;;;;;;;1.82;0.55;;;;;;;9.19;62.93;100431.14;1764316;80;20980;-52